Latest Weather Observations for South Channel Island

IDV60801

Issued at 3:42 pm EST Saturday 2 July 2022 (issued every 10 minutes, with the page automatically refreshed every 10 minutes)

About weather observations | Map of weather stations | Latest weather observations for VIC | Other Formats
Station Details ID: 086344 Name: SOUTH CHANNEL ISLAND Lat: -38.31 Lon: 144.80 Height: 9.0 m
Data from the previous 72 hours. | See also: Recent months at South Channel Island
Date/Time
EST
Temp
°C
App
Temp
°C
Dew
Point
°C
Rel
Hum
%
Delta-T
°C
Wind Press
QNH
hPa
Press
MSL
hPa
Rain since
9am
mm
Dir  Spd
km/h
Gust
km/h
Spd
kts
Gust
kts
02/03:30pm - - - - - S 20 26 11 14 - - -
02/03:00pm - - - - - S 19 22 10 12 - - -
02/02:30pm - - - - - S 17 20 9 11 - - -
02/02:00pm - - - - - S 15 19 8 10 - - -
02/01:30pm - - - - - S 13 19 7 10 - - -
02/01:00pm - - - - - SSW 15 19 8 10 - - -
02/12:30pm - - - - - S 17 22 9 12 - - -
02/12:00pm - - - - - S 20 26 11 14 - - -
02/11:30am - - - - - S 19 20 10 11 - - -
02/11:00am - - - - - S 17 19 9 10 - - -
02/10:30am - - - - - SSE 11 15 6 8 - - -
02/10:00am - - - - - SE 15 20 8 11 - - -
02/09:30am - - - - - S 19 24 10 13 - - -
02/09:00am - - - - - SSE 13 15 7 8 - - -
02/08:30am - - - - - SSE 13 17 7 9 - - -
02/08:00am - - - - - SE 17 19 9 10 - - -
02/07:30am - - - - - SSE 20 24 11 13 - - -
02/07:00am - - - - - S 19 22 10 12 - - -
02/06:30am - - - - - S 20 22 11 12 - - -
02/06:00am - - - - - S 20 24 11 13 - - -
02/05:30am - - - - - S 20 24 11 13 - - -
02/05:00am - - - - - S 20 26 11 14 - - -
02/04:30am - - - - - S 20 26 11 14 - - -
02/04:00am - - - - - S 26 28 14 15 - - -
02/03:30am - - - - - S 24 28 13 15 - - -
02/03:00am - - - - - S 26 28 14 15 - - -
02/02:30am - - - - - S 13 17 7 9 - - -
02/02:00am - - - - - SSE 13 15 7 8 - - -
02/01:30am - - - - - SSE 13 15 7 8 - - -
02/01:00am - - - - - SE 11 15 6 8 - - -
02/12:30am - - - - - SSE 13 15 7 8 - - -
02/12:00am - - - - - SE 15 17 8 9 - - -
 
Date/Time
EST
Temp
°C
App
Temp
°C
Dew
Point
°C
Rel
Hum
%
Delta-T
°C
Wind Press
QNH
hPa
Press
MSL
hPa
Rain since
9am
mm
Dir  Spd
km/h
Gust
km/h
Spd
kts
Gust
kts
01/11:30pm - - - - - SSE 15 19 8 10 - - -
01/11:00pm - - - - - S 17 19 9 10 - - -
01/10:30pm - - - - - SSE 15 19 8 10 - - -
01/10:00pm - - - - - SSE 15 17 8 9 - - -
01/09:30pm - - - - - SSE 15 17 8 9 - - -
01/09:00pm - - - - - SSE 17 20 9 11 - - -
01/08:30pm - - - - - SSE 20 26 11 14 - - -
01/08:00pm - - - - - S 24 30 13 16 - - -
01/07:30pm - - - - - S 26 33 14 18 - - -
01/07:00pm - - - - - S 28 33 15 18 - - -
01/06:30pm - - - - - S 28 33 15 18 - - -
01/06:00pm - - - - - S 28 30 15 16 - - -
01/05:30pm - - - - - S 28 32 15 17 - - -
01/05:00pm - - - - - S 22 26 12 14 - - -
01/04:30pm - - - - - S 22 28 12 15 - - -
01/04:00pm - - - - - SSE 24 28 13 15 - - -
01/03:30pm - - - - - S 24 30 13 16 - - -
01/03:00pm - - - - - S 24 28 13 15 - - -
01/02:30pm - - - - - S 24 30 13 16 - - -
01/02:00pm - - - - - S 26 30 14 16 - - -
01/01:30pm - - - - - S 26 30 14 16 - - -
01/01:00pm - - - - - S 26 32 14 17 - - -
01/12:30pm - - - - - S 26 32 14 17 - - -
01/12:00pm - - - - - S 24 30 13 16 - - -
01/11:30am - - - - - SSE 28 32 15 17 - - -
01/11:00am - - - - - S 28 32 15 17 - - -
01/10:30am - - - - - S 28 32 15 17 - - -
01/10:00am - - - - - S 30 33 16 18 - - -
01/09:30am - - - - - S 28 33 15 18 - - -
01/09:00am - - - - - S 30 33 16 18 - - -
01/08:30am - - - - - S 28 33 15 18 - - -
01/08:00am - - - - - S 20 28 11 15 - - -
01/07:30am - - - - - S 17 22 9 12 - - -
01/07:00am - - - - - S 17 20 9 11 - - -
01/06:30am - - - - - S 19 22 10 12 - - -
01/06:00am - - - - - S 17 19 9 10 - - -
01/05:30am - - - - - SSW 13 17 7 9 - - -
01/05:00am - - - - - S 13 15 7 8 - - -
01/04:30am - - - - - S 17 19 9 10 - - -
01/04:00am - - - - - S 15 19 8 10 - - -
01/03:30am - - - - - S 15 17 8 9 - - -
01/03:00am - - - - - S 17 19 9 10 - - -
01/02:30am - - - - - SSW 19 22 10 12 - - -
01/02:00am - - - - - SSW 24 26 13 14 - - -
01/01:30am - - - - - SSW 28 30 15 16 - - -
01/01:00am - - - - - SSW 28 32 15 17 - - -
01/12:30am - - - - - SSW 28 32 15 17 - - -
01/12:00am - - - - - SSW 28 32 15 17 - - -
 
Date/Time
EST
Temp
°C
App
Temp
°C
Dew
Point
°C
Rel
Hum
%
Delta-T
°C
Wind Press
QNH
hPa
Press
MSL
hPa
Rain since
9am
mm
Dir  Spd
km/h
Gust
km/h
Spd
kts
Gust
kts
30/11:30pm - - - - - S 26 32 14 17 - - -
30/11:00pm - - - - - S 28 32 15 17 - - -
30/10:30pm - - - - - S 22 28 12 15 - - -
30/10:00pm - - - - - S 22 26 12 14 - - -
30/09:30pm - - - - - S 17 19 9 10 - - -
30/09:00pm - - - - - S 20 24 11 13 - - -
30/08:30pm - - - - - SSE 17 20 9 11 - - -
30/08:00pm - - - - - SSE 17 19 9 10 - - -
30/07:30pm - - - - - SSE 19 20 10 11 - - -
30/07:00pm - - - - - SSE 24 28 13 15 - - -
30/06:30pm - - - - - S 19 24 10 13 - - -
30/06:00pm - - - - - SSW 19 20 10 11 - - -
30/05:30pm - - - - - SSW 20 26 11 14 - - -
30/05:00pm - - - - - SSW 17 19 9 10 - - -
30/04:30pm - - - - - SSW 15 17 8 9 - - -
30/04:00pm - - - - - SW 11 17 6 9 - - -
30/03:30pm - - - - - CALM 0 0 0 0 - - -
30/03:00pm - - - - - WSW 6 7 3 4 - - -
30/02:30pm - - - - - CALM 0 0 0 0 - - -
30/02:00pm - - - - - CALM 0 0 0 0 - - -
30/01:30pm - - - - - N 4 11 2 6 - - -
30/01:00pm - - - - - N 9 11 5 6 - - -
30/12:30pm - - - - - N 11 13 6 7 - - -
30/12:00pm - - - - - N 13 15 7 8 - - -
30/11:30am - - - - - N 11 13 6 7 - - -
30/11:00am - - - - - N 13 15 7 8 - - -
30/10:30am - - - - - NNW 9 11 5 6 - - -
30/10:00am - - - - - NW 9 11 5 6 - - -
30/09:30am - - - - - NW 11 11 6 6 - - -
30/09:00am - - - - - NW 13 15 7 8 - - -
30/08:30am - - - - - NW 15 15 8 8 - - -
30/08:00am - - - - - NW 9 11 5 6 - - -
30/07:30am - - - - - NW 9 11 5 6 - - -
30/07:00am - - - - - NW 11 13 6 7 - - -
30/06:30am - - - - - CALM 0 0 0 0 - - -
30/06:00am - - - - - NNW 7 9 4 5 - - -
30/05:30am - - - - - N 9 11 5 6 - - -
30/05:00am - - - - - NW 11 13 6 7 - - -
30/04:30am - - - - - NW 15 19 8 10 - - -
30/04:00am - - - - - NW 17 19 9 10 - - -
30/03:30am - - - - - NW 19 20 10 11 - - -
30/03:00am - - - - - NW 17 20 9 11 - - -
30/02:30am - - - - - NW 19 22 10 12 - - -
30/02:00am - - - - - NW 19 20 10 11 - - -
30/01:30am - - - - - NNW 26 30 14 16 - - -
30/01:00am - - - - - NNW 30 33 16 18 - - -
30/12:30am - - - - - NNW 30 37 16 20 - - -
30/12:00am - - - - - NNW 35 43 19 23 - - -
 
Date/Time
EST
Temp
°C
App
Temp
°C
Dew
Point
°C
Rel
Hum
%
Delta-T
°C
Wind Press
QNH
hPa
Press
MSL
hPa
Rain since
9am
mm
Dir  Spd
km/h
Gust
km/h
Spd
kts
Gust
kts
29/11:30pm - - - - - N 37 44 20 24 - - -
29/11:00pm - - - - - N 35 39 19 21 - - -
29/10:30pm - - - - - N 37 43 20 23 - - -
29/10:00pm - - - - - N 39 43 21 23 - - -
29/09:30pm - - - - - N 39 48 21 26 - - -
29/09:00pm - - - - - N 43 50 23 27 - - -
29/08:30pm - - - - - N 41 48 22 26 - - -
29/08:00pm - - - - - N 43 48 23 26 - - -
29/07:30pm - - - - - N 43 50 23 27 - - -
29/07:00pm - - - - - N 43 48 23 26 - - -
29/06:30pm - - - - - N 39 46 21 25 - - -
29/06:00pm - - - - - N 37 43 20 23 - - -
29/05:30pm - - - - - N 39 46 21 25 - - -
29/05:00pm - - - - - N 37 43 20 23 - - -
29/04:30pm - - - - - N 39 46 21 25 - - -
29/04:00pm - - - - - N 35 39 19 21 - - -

Other formats

Comma delimited format used in spreadsheet applications
http://www.bom.gov.au/fwo/IDV60801/IDV60801.94853.axf

JavaScript Object Notation format (JSON) in row-major order
http://www.bom.gov.au/fwo/IDV60801/IDV60801.94853.json

Data quality

Most of these data are generated automatically and are frequently updated. Quality checks on data are not normally performed. It is possible for incorrect values to appear. Refer to information at About Latest Weather Observations and please check the disclaimer before using these data.